Time;durP1;ratioP1;P1;durP2;ratioP2;P2;SDS_P1;SDS_P2;PMS_P1;PMS_P2;Temp;Humidity;BMP_temperature;BMP_pressure;BME280_temperature;BME280_humidity;BME280_pressure;Samples;Min_cycle;Max_cycle;Signal;HPM_P1;HPM_P2
2022/08/11 00:00:12;;;;;;;2.30;0.85;;;18.50;92.80;;;;;;6118982;23;20599;-67
2022/08/11 00:02:42;;;;;;;0.80;0.80;;;18.50;92.80;;;;;;6119398;23;20085;-66
2022/08/11 00:05:11;;;;;;;1.75;0.85;;;18.50;92.90;;;;;;6118460;23;20017;-66
2022/08/11 00:07:51;;;;;;;2.60;1.10;;;18.50;92.80;;;;;;6118868;23;20002;-66
2022/08/11 00:10:21;;;;;;;1.50;1.00;;;18.50;92.90;;;;;;6093523;23;20538;-66
2022/08/11 00:12:51;;;;;;;1.55;1.10;;;18.50;93.10;;;;;;6118469;23;20024;-66
2022/08/11 00:15:17;;;;;;;1.05;0.95;;;18.40;94.10;;;;;;6119939;23;20010;-66
2022/08/11 00:17:43;;;;;;;1.90;1.15;;;18.30;94.60;;;;;;6118043;23;20431;-66
2022/08/11 00:20:14;;;;;;;2.05;1.30;;;18.20;95.10;;;;;;6120113;23;20017;-66
2022/08/11 00:22:41;;;;;;;6.88;1.52;;;18.10;95.20;;;;;;6118672;23;20026;-66
2022/08/11 00:25:20;;;;;;;10.63;1.58;;;17.90;95.60;;;;;;6120201;23;20332;-66
2022/08/11 00:27:47;;;;;;;2.03;1.00;;;17.80;95.80;;;;;;6118670;23;20057;-66
2022/08/11 00:30:14;;;;;;;1.88;1.10;;;17.70;96.00;;;;;;6118562;23;20013;-66
2022/08/11 00:32:43;;;;;;;1.42;1.33;;;17.60;96.30;;;;;;6116016;23;20037;-66
2022/08/11 00:35:13;;;;;;;3.45;1.23;;;17.50;97.10;;;;;;6090051;23;20014;-69
2022/08/11 00:37:43;;;;;;;1.75;1.15;;;17.50;97.10;;;;;;6118281;23;20013;-66
2022/08/11 00:40:18;;;;;;;2.17;1.08;;;17.60;96.90;;;;;;6090946;23;20104;-66
2022/08/11 00:43:00;;;;;;;11.15;3.33;;;17.60;96.50;;;;;;6117329;23;19998;-66
2022/08/11 00:45:36;;;;;;;1.45;0.88;;;17.60;96.60;;;;;;6117419;23;20006;-66
2022/08/11 00:48:28;;;;;;;1.50;1.10;;;17.60;96.90;;;;;;6117779;23;20009;-65
2022/08/11 00:51:14;;;;;;;2.13;0.95;;;17.50;97.40;;;;;;6061988;23;20050;-66
2022/08/11 00:53:55;;;;;;;2.00;1.30;;;17.40;98.00;;;;;;6117561;23;20072;-66
2022/08/11 00:56:58;;;;;;;1.27;1.17;;;17.30;97.50;;;;;;6117596;23;20529;-65
2022/08/11 01:00:01;;;;;;;1.25;1.10;;;17.30;98.00;;;;;;6115450;23;20010;-66
2022/08/11 01:02:38;;;;;;;;;;;17.30;97.80;;;;;;6118348;23;20056;-66
2022/08/11 01:05:26;;;;;;;1.98;1.20;;;17.40;97.70;;;;;;6116527;23;19901;-66
2022/08/11 01:08:42;;;;;;;1.20;1.10;;;17.40;97.50;;;;;;6116426;23;20525;-66
2022/08/11 01:11:41;;;;;;;2.30;1.02;;;17.40;97.40;;;;;;6115893;23;20005;-66
2022/08/11 01:14:32;;;;;;;1.90;1.30;;;17.50;97.00;;;;;;6117101;23;20085;-66
2022/08/11 01:17:16;;;;;;;1.40;1.00;;;17.60;96.70;;;;;;6117043;23;20016;-69
2022/08/11 01:20:01;;;;;;;1.23;0.80;;;17.60;96.40;;;;;;6116926;23;20002;-69
2022/08/11 01:22:52;;;;;;;2.03;1.02;;;17.60;96.50;;;;;;6117296;23;20013;-69
2022/08/11 01:25:30;;;;;;;1.23;1.10;;;17.60;96.50;;;;;;6117119;23;20002;-69
2022/08/11 01:28:17;;;;;;;1.95;1.10;;;17.70;96.30;;;;;;6116261;23;20313;-69
2022/08/11 01:31:14;;;;;;;1.33;1.20;;;17.70;96.10;;;;;;6115749;23;20010;-69
2022/08/11 01:33:58;;;;;;;2.20;1.30;;;17.70;96.00;;;;;;6117653;23;20395;-69
2022/08/11 01:36:58;;;;;;;1.05;0.95;;;17.70;95.90;;;;;;6116145;23;20034;-69
2022/08/11 01:39:58;;;;;;;5.18;1.10;;;17.80;95.70;;;;;;6115379;23;20061;-69
2022/08/11 01:45:50;;;;;;;3.25;0.90;;;17.90;95.50;;;;;;6116411;23;20066;-69
2022/08/11 01:48:33;;;;;;;1.77;1.02;;;17.90;95.50;;;;;;6115917;23;20014;-69
2022/08/11 01:51:18;;;;;;;3.25;1.15;;;18.00;95.50;;;;;;6117342;23;20416;-69
2022/08/11 01:53:53;;;;;;;2.78;1.00;;;18.00;95.40;;;;;;6117167;23;20081;-69
2022/08/11 01:56:39;;;;;;;1.45;0.90;;;18.00;95.30;;;;;;6117556;23;20072;-69
2022/08/11 01:59:25;;;;;;;0.98;0.90;;;18.00;95.20;;;;;;6115862;23;20380;-69
2022/08/11 02:02:00;;;;;;;2.75;0.90;;;17.90;95.20;;;;;;6113775;23;20010;-69
2022/08/11 02:04:42;;;;;;;3.05;1.10;;;18.00;95.00;;;;;;6114302;23;20061;-69
2022/08/11 02:07:37;;;;;;;0.77;0.77;;;18.00;95.00;;;;;;6115788;23;20002;-69
2022/08/11 02:13:28;;;;;;;2.17;1.20;;;18.00;94.90;;;;;;6114302;23;20185;-69
2022/08/11 02:16:03;;;;;;;4.05;1.13;;;18.00;95.20;;;;;;6115179;23;20625;-69
2022/08/11 02:24:29;;;;;;;2.22;1.00;;;18.00;95.10;;;;;;6113327;23;20821;-69
2022/08/11 02:27:17;;;;;;;1.70;0.80;;;17.90;95.20;;;;;;6113496;23;20037;-69
2022/08/11 02:30:06;;;;;;;2.50;0.95;;;17.90;95.40;;;;;;6112543;23;20018;-69
2022/08/11 02:35:54;;;;;;;1.65;1.10;;;17.80;95.60;;;;;;6113188;23;20041;-69
2022/08/11 02:38:42;;;;;;;1.67;1.20;;;17.80;95.60;;;;;;6115079;23;20431;-69
2022/08/11 02:44:30;;;;;;;0.95;0.90;;;17.70;95.70;;;;;;6113583;23;20020;-69
2022/08/11 02:47:15;;;;;;;1.60;1.20;;;17.70;95.90;;;;;;6114926;23;20499;-68
2022/08/11 02:49:58;;;;;;;3.83;1.13;;;17.70;96.00;;;;;;6113616;23;20041;-69
2022/08/11 02:52:35;;;;;;;1.60;1.23;;;17.70;96.20;;;;;;6115025;23;20002;-70
2022/08/11 02:55:20;;;;;;;2.30;1.15;;;17.60;97.20;;;;;;6114306;23;20010;-69
2022/08/11 02:58:13;;;;;;;1.40;1.30;;;17.50;97.70;;;;;;6115157;23;20006;-69
2022/08/11 03:01:22;;;;;;;1.65;1.02;;;17.40;98.20;;;;;;6113177;23;20013;-69
2022/08/11 03:03:59;;;;;;;3.30;1.48;;;17.30;98.60;;;;;;6113701;23;20010;-68
2022/08/11 03:06:33;;;;;;;7.40;1.30;;;17.00;98.90;;;;;;6114162;23;20844;-69
2022/08/11 03:09:13;;;;;;;1.13;0.90;;;16.90;99.40;;;;;;6114272;23;20475;-69
2022/08/11 03:17:56;;;;;;;2.00;1.27;;;16.70;99.90;;;;;;6115767;23;20021;-69
2022/08/11 03:20:47;;;;;;;2.03;1.00;;;16.70;99.90;;;;;;6116033;23;20006;-69
2022/08/11 03:23:38;;;;;;;1.75;1.50;;;16.70;99.90;;;;;;6117068;23;20073;-69
2022/08/11 03:26:23;;;;;;;1.85;1.30;;;16.50;99.90;;;;;;6115233;23;20002;-69
2022/08/11 03:29:35;;;;;;;2.72;0.98;;;16.60;99.90;;;;;;6115953;23;20014;-69
2022/08/11 03:32:27;;;;;;;3.00;1.15;;;16.70;99.90;;;;;;5997678;23;20008;-69
2022/08/11 03:34:56;;;;;;;10.07;1.17;;;16.80;99.90;;;;;;6116660;23;20061;-69
2022/08/11 03:37:52;;;;;;;18.58;1.70;;;16.90;99.90;;;;;;6116106;23;20002;-69
2022/08/11 03:43:09;;;;;;;2.60;1.20;;;16.90;99.70;;;;;;6114632;23;20061;-69
2022/08/11 03:46:15;;;;;;;1.50;1.40;;;17.00;99.40;;;;;;6115488;23;20024;-69
2022/08/11 03:49:06;;;;;;;1.40;1.30;;;17.10;99.30;;;;;;6050392;23;20615;-69
2022/08/11 03:51:49;;;;;;;6.63;1.40;;;17.10;99.30;;;;;;6117079;23;19998;-69
2022/08/11 03:54:49;;;;;;;1.70;1.20;;;17.10;99.40;;;;;;6115845;23;20017;-69
2022/08/11 03:57:52;;;;;;;3.45;1.27;;;17.10;99.50;;;;;;6109709;23;20042;-69
2022/08/11 04:00:40;;;;;;;2.40;1.17;;;17.20;99.50;;;;;;6115511;23;20013;-69
2022/08/11 04:03:35;;;;;;;4.55;1.30;;;17.20;99.60;;;;;;6115603;23;20009;-69
2022/08/11 04:06:26;;;;;;;27.60;2.95;;;17.20;99.90;;;;;;6116852;23;20017;-69
2022/08/11 04:09:05;;;;;;;6.63;1.88;;;17.20;99.90;;;;;;6117609;23;20022;-69
2022/08/11 04:11:45;;;;;;;8.05;1.38;;;17.20;99.90;;;;;;6117442;23;20006;-69
2022/08/11 04:17:32;;;;;;;3.50;1.20;;;17.30;99.80;;;;;;6118529;23;20041;-69
2022/08/11 04:20:21;;;;;;;2.33;1.50;;;17.40;99.90;;;;;;6090800;23;20014;-69
2022/08/11 04:23:01;;;;;;;2.90;1.38;;;17.40;99.70;;;;;;6118665;23;20028;-69
2022/08/11 04:26:04;;;;;;;1.63;1.17;;;17.50;99.90;;;;;;6116327;23;20014;-68
2022/08/11 04:28:48;;;;;;;2.20;1.48;;;17.50;99.90;;;;;;6117676;23;20005;-69
2022/08/11 04:31:36;;;;;;;2.05;1.10;;;17.60;99.90;;;;;;6116901;23;20367;-69
2022/08/11 04:34:27;;;;;;;1.67;1.30;;;17.60;99.90;;;;;;6117078;23;20009;-69
2022/08/11 04:40:20;;;;;;;1.15;0.90;;;17.70;99.80;;;;;;6115164;23;20499;-69
2022/08/11 04:43:19;;;;;;;2.95;1.20;;;17.80;99.90;;;;;;6117246;23;20001;-69
2022/08/11 04:46:05;;;;;;;3.10;1.15;;;17.80;99.90;;;;;;6116705;23;20010;-69
2022/08/11 05:03:52;;;;;;;2.80;1.67;;;18.10;99.90;;;;;;6118900;23;20021;-69
2022/08/11 05:07:09;;;;;;;7.45;1.73;;;18.30;99.90;;;;;;6117453;23;20552;-72
2022/08/11 05:10:01;;;;;;;6.72;1.42;;;18.50;99.90;;;;;;6026793;23;20046;-69
2022/08/11 05:12:42;;;;;;;1.83;1.02;;;18.70;99.90;;;;;;6116431;23;20021;-69
2022/08/11 05:35:38;;;;;;;10.35;1.85;;;19.60;99.40;;;;;;6116868;23;20085;-67
2022/08/11 05:57:59;;;;;;;1.92;0.73;;;20.70;95.80;;;;;;6117135;23;20036;-67
2022/08/11 06:00:25;;;;;;;1.48;0.90;;;20.70;95.60;;;;;;6117665;23;19998;-66
2022/08/11 06:02:57;;;;;;;2.70;1.00;;;20.70;95.60;;;;;;6116763;23;20018;-68
2022/08/11 06:05:30;;;;;;;0.90;0.60;;;20.80;94.90;;;;;;6113731;23;20010;-69
2022/08/11 06:07:55;;;;;;;1.00;0.90;;;20.90;95.00;;;;;;6116914;23;20006;-68
2022/08/11 06:10:39;;;;;;;2.45;0.77;;;21.00;94.90;;;;;;6113838;23;20061;-69
2022/08/11 06:13:07;;;;;;;3.63;1.05;;;21.10;94.80;;;;;;6116006;23;20018;-69
2022/08/11 06:15:42;;;;;;;2.22;0.80;;;21.40;94.60;;;;;;6116133;23;20601;-68
2022/08/11 06:18:10;;;;;;;5.32;0.90;;;21.50;94.30;;;;;;6117770;23;20090;-68
2022/08/11 06:20:49;;;;;;;2.20;0.70;;;21.70;94.20;;;;;;6114253;23;20002;-68
2022/08/11 06:23:21;;;;;;;10.95;1.10;;;21.80;93.40;;;;;;6116952;23;20049;-68
2022/08/11 06:25:48;;;;;;;1.00;0.90;;;21.90;93.70;;;;;;6089632;23;20061;-67
2022/08/11 06:28:17;;;;;;;1.30;0.80;;;22.10;93.20;;;;;;6116250;23;20006;-66
2022/08/11 06:30:44;;;;;;;5.18;1.33;;;22.20;92.90;;;;;;6115173;23;20740;-67
2022/08/11 06:33:14;;;;;;;4.72;1.38;;;22.30;90.90;;;;;;6116160;23;20036;-66
2022/08/11 06:35:54;;;;;;;2.60;1.40;;;22.30;91.80;;;;;;6117081;23;20065;-67
2022/08/11 06:38:45;;;;;;;3.08;1.00;;;22.30;92.30;;;;;;6116355;23;20009;-66
2022/08/11 06:41:49;;;;;;;3.35;1.90;;;22.40;91.10;;;;;;6115919;23;20022;-67
2022/08/11 06:44:43;;;;;;;7.60;2.55;;;22.40;90.80;;;;;;6082118;23;20013;-67
2022/08/11 06:47:14;;;;;;;1.30;1.00;;;22.50;89.50;;;;;;6112463;23;20515;-67
2022/08/11 06:52:36;;;;;;;3.37;0.93;;;22.60;86.70;;;;;;6115286;23;20450;-67
2022/08/11 07:00:26;;;;;;;5.45;1.30;;;22.60;87.20;;;;;;6116516;23;20786;-66
2022/08/11 07:01:12;;;;;;;12.50;1.40;;;22.90;87.50;;;;;;6115441;23;20109;-66
2022/08/11 07:03:43;;;;;;;10.07;1.23;;;23.00;87.10;;;;;;6116915;23;19998;-66
2022/08/11 07:06:37;;;;;;;17.95;2.63;;;23.00;84.80;;;;;;6116258;23;20009;-66
2022/08/11 07:15:41;;;;;;;1.20;0.80;;;22.90;83.20;;;;;;6117417;23;20017;-66
2022/08/11 07:29:20;;;;;;;2.08;0.90;;;23.40;82.00;;;;;;6114735;23;20029;-66
2022/08/11 07:31:50;;;;;;;3.38;1.00;;;23.60;80.40;;;;;;6089758;23;20002;-66
2022/08/11 07:34:35;;;;;;;2.70;0.80;;;23.70;82.50;;;;;;6116968;23;20005;-66
2022/08/11 07:37:11;;;;;;;1.67;0.93;;;23.80;81.10;;;;;;6090201;23;20028;-66
2022/08/11 07:39:38;;;;;;;1.60;0.85;;;23.90;77.20;;;;;;6091098;23;20436;-67
2022/08/11 07:42:07;;;;;;;2.22;1.05;;;23.80;80.30;;;;;;6116879;23;20320;-66
2022/08/11 07:48:10;;;;;;;9.70;2.97;;;23.90;79.70;;;;;;6117896;23;20006;-66
2022/08/11 07:52:53;;;;;;;7.45;1.10;;;24.10;81.50;;;;;;6116887;23;20068;-66
2022/08/11 07:55:21;;;;;;;6.20;1.38;;;24.10;79.60;;;;;;6117821;23;20450;-67
2022/08/11 08:17:57;;;;;;;2.60;0.85;;;24.70;72.50;;;;;;6118301;23;20017;-74
2022/08/11 08:20:30;;;;;;;0.77;0.60;;;24.60;73.90;;;;;;6117397;23;20089;-74
2022/08/11 08:22:58;;;;;;;7.47;1.20;;;24.70;74.10;;;;;;6118462;23;20455;-74
2022/08/11 08:25:30;;;;;;;6.07;1.70;;;24.80;73.60;;;;;;6117221;23;20772;-73
2022/08/11 08:27:58;;;;;;;5.32;1.48;;;24.90;71.30;;;;;;6115712;23;20057;-73
2022/08/11 08:33:17;;;;;;;1.70;0.88;;;25.20;71.30;;;;;;6115063;23;20496;-66
2022/08/11 08:35:44;;;;;;;0.88;0.75;;;25.20;66.40;;;;;;6115033;23;20010;-66
2022/08/11 08:38:11;;;;;;;4.38;1.00;;;25.00;68.10;;;;;;6117543;23;20089;-66
2022/08/11 08:40:40;;;;;;;3.13;0.90;;;25.00;69.40;;;;;;6117702;23;20026;-66
2022/08/11 08:43:14;;;;;;;2.05;0.90;;;25.20;69.00;;;;;;6116503;23;20008;-66
2022/08/11 08:45:41;;;;;;;8.00;1.10;;;25.30;69.20;;;;;;6089302;23;20018;-65
2022/08/11 08:48:14;;;;;;;0.68;0.68;;;25.30;70.10;;;;;;6116280;23;20001;-66
2022/08/11 08:53:07;;;;;;;0.90;0.60;;;25.40;67.40;;;;;;6116145;23;20014;-66
2022/08/11 08:55:33;;;;;;;2.80;0.88;;;25.30;67.20;;;;;;6116079;23;20006;-66
2022/08/11 08:58:00;;;;;;;1.08;0.93;;;25.10;66.90;;;;;;6114544;23;20088;-64
2022/08/11 09:00:39;;;;;;;1.48;1.38;;;25.10;69.20;;;;;;6117246;23;20002;-64
2022/08/11 09:03:04;;;;;;;1.60;0.70;;;25.20;67.70;;;;;;6117838;23;20006;-64
2022/08/11 09:05:30;;;;;;;1.17;0.90;;;25.40;68.90;;;;;;6118385;23;20491;-65
2022/08/11 09:07:57;;;;;;;1.30;0.70;;;25.50;68.40;;;;;;6116679;23;20013;-65
2022/08/11 09:10:24;;;;;;;9.43;1.00;;;25.60;65.50;;;;;;6089214;23;20069;-65
2022/08/11 09:12:50;;;;;;;1.50;0.77;;;25.50;62.90;;;;;;6116531;23;20097;-65
2022/08/11 09:15:17;;;;;;;1.48;0.90;;;25.50;63.50;;;;;;6117775;23;20006;-65
2022/08/11 09:17:46;;;;;;;1.77;0.70;;;25.50;64.10;;;;;;6116578;23;20057;-65
2022/08/11 09:20:18;;;;;;;0.82;0.60;;;25.50;61.50;;;;;;6117194;23;20028;-64
2022/08/11 09:28:20;;;;;;;0.77;0.70;;;25.50;64.30;;;;;;6113513;23;20347;-64
2022/08/11 09:30:52;;;;;;;1.85;0.52;;;25.60;64.30;;;;;;6116632;23;20673;-65
2022/08/11 09:33:18;;;;;;;1.00;0.80;;;25.70;60.70;;;;;;6116633;23;19998;-64
2022/08/11 09:35:47;;;;;;;3.03;0.60;;;25.60;61.10;;;;;;6117436;23;20676;-64
2022/08/11 09:41:05;;;;;;;2.25;0.77;;;25.80;58.40;;;;;;6117115;23;20113;-65
2022/08/11 09:46:26;;;;;;;0.85;0.50;;;25.90;59.60;;;;;;6117004;23;20037;-65
2022/08/11 09:48:53;;;;;;;2.13;0.73;;;26.00;59.60;;;;;;6115751;23;20006;-65
2022/08/11 09:51:20;;;;;;;2.30;0.80;;;26.10;58.70;;;;;;6115602;23;20033;-65
2022/08/11 09:53:47;;;;;;;1.33;0.52;;;26.10;57.30;;;;;;6116067;23;20368;-64
2022/08/11 09:59:04;;;;;;;1.13;0.55;;;26.00;57.30;;;;;;6115082;23;20455;-65
2022/08/11 10:01:49;;;;;;;3.42;0.85;;;25.90;54.70;;;;;;6116095;23;20524;-65
2022/08/11 10:04:17;;;;;;;1.30;0.70;;;25.80;56.40;;;;;;6114747;23;20048;-64
2022/08/11 10:07:02;;;;;;;0.60;0.60;;;25.90;58.10;;;;;;6117094;23;20028;-65
2022/08/11 10:09:39;;;;;;;0.63;0.63;;;26.00;57.70;;;;;;6116389;23;20014;-65
2022/08/11 10:12:13;;;;;;;0.77;0.77;;;26.20;58.80;;;;;;6123411;23;20022;-65
2022/08/11 10:17:31;;;;;;;0.63;0.50;;;26.20;57.80;;;;;;6146376;23;20020;-64
2022/08/11 10:20:03;;;;;;;1.08;0.63;;;26.10;57.70;;;;;;6143900;23;20005;-65
2022/08/11 10:28:02;;;;;;;0.50;0.50;;;25.90;58.20;;;;;;6145217;23;20024;-65
2022/08/11 10:35:59;;;;;;;0.95;0.60;;;25.60;58.10;;;;;;6144290;23;20549;-64
2022/08/11 10:38:26;;;;;;;2.30;0.50;;;25.60;60.30;;;;;;6146591;23;20060;-64
2022/08/11 10:43:01;;;;;;;1.30;0.50;;;25.50;58.90;;;;;;6145523;23;20080;-64
2022/08/11 10:43:40;;;;;;;0.98;0.63;;;25.40;58.40;;;;;;6143178;23;20020;-65
2022/08/11 10:48:56;;;;;;;0.75;0.50;;;25.30;60.00;;;;;;6144426;23;20101;-64
2022/08/11 10:59:41;;;;;;;0.40;0.40;;;25.30;60.60;;;;;;6146044;23;20083;-64
2022/08/11 11:02:12;;;;;;;2.33;0.82;;;25.30;61.60;;;;;;6143637;23;20012;-65
2022/08/11 11:04:46;;;;;;;1.33;0.55;;;25.40;59.40;;;;;;6146525;23;20016;-64
2022/08/11 11:07:23;;;;;;;1.15;0.60;;;25.70;60.40;;;;;;6146473;23;20340;-65
2022/08/11 11:09:53;;;;;;;0.60;0.60;;;25.90;57.80;;;;;;6144428;23;20024;-67
2022/08/11 11:18:08;;;;;;;0.60;0.60;;;26.20;57.50;;;;;;6144846;23;20013;-65
2022/08/11 11:20:45;;;;;;;0.50;0.50;;;26.30;57.10;;;;;;6145618;23;20020;-65
2022/08/11 11:23:40;;;;;;;0.90;0.80;;;26.30;57.10;;;;;;6145215;23;20490;-65
2022/08/11 11:26:21;;;;;;;1.10;0.80;;;26.40;57.20;;;;;;6115063;23;20059;-67
2022/08/11 11:29:12;;;;;;;1.63;0.60;;;26.40;56.20;;;;;;6145120;23;20088;-67
2022/08/11 11:32:11;;;;;;;2.30;0.60;;;26.50;57.30;;;;;;6145203;23;20084;-68
2022/08/11 11:34:58;;;;;;;1.67;0.82;;;26.50;55.10;;;;;;6143818;23;20446;-69
2022/08/11 11:37:24;;;;;;;1.35;0.60;;;26.60;57.10;;;;;;6145234;23;20002;-68
2022/08/11 11:39:51;;;;;;;4.38;0.57;;;26.70;57.60;;;;;;6145418;23;20005;-68
2022/08/11 11:42:18;;;;;;;0.63;0.57;;;26.70;56.20;;;;;;6145280;23;20486;-67
2022/08/11 11:44:46;;;;;;;3.78;0.80;;;26.60;57.30;;;;;;6145052;23;20458;-68
2022/08/11 11:47:14;;;;;;;0.70;0.70;;;26.50;55.40;;;;;;6145407;23;20005;-67
2022/08/11 11:49:42;;;;;;;1.00;0.63;;;26.60;56.60;;;;;;6146224;23;20096;-68
2022/08/11 11:52:14;;;;;;;0.98;0.60;;;26.50;55.50;;;;;;6144281;23;20136;-67
2022/08/11 11:54:40;;;;;;;0.68;0.68;;;26.50;57.00;;;;;;6147078;23;20307;-67
2022/08/11 12:02:38;;;;;;;7.43;0.98;;;26.90;56.20;;;;;;6143932;23;20032;-66
2022/08/11 12:05:06;;;;;;;0.52;0.47;;;26.90;57.00;;;;;;6143366;23;20096;-65
2022/08/11 12:10:17;;;;;;;3.00;0.60;;;26.90;56.50;;;;;;6144885;23;20108;-66
2022/08/11 12:15:29;;;;;;;1.40;0.80;;;26.90;56.70;;;;;;6146063;23;20019;-67
2022/08/11 12:17:56;;;;;;;1.02;0.40;;;26.90;56.10;;;;;;6145558;23;20005;-66
2022/08/11 12:20:22;;;;;;;3.20;0.40;;;26.80;56.60;;;;;;6145412;23;20069;-66
2022/08/11 12:28:22;;;;;;;1.60;0.50;;;26.80;56.50;;;;;;6157086;23;20040;-72
2022/08/11 12:30:50;;;;;;;3.28;0.50;;;26.80;55.50;;;;;;6157146;23;20080;-71
2022/08/11 12:33:18;;;;;;;2.00;0.50;;;26.70;55.90;;;;;;6132818;23;20001;-73
2022/08/11 12:35:45;;;;;;;0.73;0.35;;;26.60;56.80;;;;;;6157114;23;20010;-73
2022/08/11 12:38:12;;;;;;;4.93;0.52;;;26.70;56.50;;;;;;6159640;23;20021;-72
2022/08/11 12:46:30;;;;;;;1.92;0.52;;;26.60;53.60;;;;;;6159122;23;20458;-72
2022/08/11 12:51:57;;;;;;;0.80;0.60;;;26.40;56.80;;;;;;6158651;23;20059;-72
2022/08/11 12:54:44;;;;;;;0.95;0.60;;;26.40;54.20;;;;;;6159573;23;20037;-72
2022/08/11 13:05:32;;;;;;;0.85;0.63;;;26.60;56.30;;;;;;6159084;23;20025;-71
2022/08/11 13:08:00;;;;;;;2.03;0.60;;;26.50;53.90;;;;;;6157456;23;20002;-72
2022/08/11 13:13:13;;;;;;;0.65;0.60;;;26.40;56.40;;;;;;6157283;23;20028;-73
2022/08/11 13:15:39;;;;;;;0.40;0.40;;;26.40;56.00;;;;;;6150701;23;20025;-73
2022/08/11 13:18:08;;;;;;;5.93;0.90;;;26.40;54.40;;;;;;6147723;23;20454;-72
2022/08/11 13:20:34;;;;;;;2.78;0.50;;;26.20;54.10;;;;;;6148722;23;20008;-73
2022/08/11 13:23:00;;;;;;;2.30;0.52;;;26.20;56.20;;;;;;6148027;23;20013;-72
2022/08/11 13:25:30;;;;;;;3.15;0.57;;;26.20;55.70;;;;;;6148562;23;20005;-73
2022/08/11 13:27:58;;;;;;;1.63;0.43;;;26.10;56.10;;;;;;6147751;23;20032;-72
2022/08/11 13:33:11;;;;;;;0.25;0.25;;;26.20;56.70;;;;;;6146333;23;20025;-73
2022/08/11 13:35:38;;;;;;;3.97;0.45;;;26.30;55.70;;;;;;6149286;23;20033;-72
2022/08/11 13:38:04;;;;;;;2.20;0.30;;;26.20;56.10;;;;;;6147612;23;20068;-72
2022/08/11 13:40:32;;;;;;;0.40;0.40;;;26.20;55.20;;;;;;6148151;23;20018;-72
2022/08/11 13:42:58;;;;;;;1.02;0.50;;;26.10;54.00;;;;;;6146926;23;20001;-73
2022/08/11 13:45:25;;;;;;;1.10;0.80;;;26.10;55.40;;;;;;6148394;23;20203;-73
2022/08/11 13:47:55;;;;;;;1.88;0.40;;;26.00;54.70;;;;;;6148588;23;20009;-73
2022/08/11 13:51:29;;;;;;;0.35;0.35;;;26.00;54.80;;;;;;6146190;23;20013;-72
2022/08/11 13:53:09;;;;;;;1.10;0.43;;;26.00;56.20;;;;;;6147121;23;20013;-72
2022/08/11 13:55:35;;;;;;;0.35;0.32;;;26.00;57.10;;;;;;6147944;23;20025;-72
2022/08/11 13:58:01;;;;;;;0.60;0.30;;;26.00;56.30;;;;;;6147229;23;20016;-72
2022/08/11 14:00:30;;;;;;;0.52;0.40;;;26.00;57.10;;;;;;6147109;23;20005;-72
2022/08/11 14:02:56;;;;;;;0.40;0.32;;;26.00;57.60;;;;;;6146084;23;20083;-72
2022/08/11 14:05:27;;;;;;;0.47;0.40;;;26.00;58.00;;;;;;6146527;23;20436;-72
2022/08/11 14:07:58;;;;;;;1.40;0.70;;;26.10;58.20;;;;;;6147182;23;20006;-72
2022/08/11 14:10:28;;;;;;;4.10;0.43;;;26.10;56.00;;;;;;6145770;23;20044;-72
2022/08/11 14:16:00;;;;;;;3.83;0.73;;;26.20;58.50;;;;;;6145876;23;20084;-72
2022/08/11 14:18:28;;;;;;;1.50;0.40;;;26.10;58.80;;;;;;6147586;23;20068;-72
2022/08/11 14:23:45;;;;;;;3.38;0.57;;;25.90;58.10;;;;;;6146566;23;20092;-73
2022/08/11 14:26:22;;;;;;;0.40;0.40;;;25.90;56.90;;;;;;6145326;23;20005;-73
2022/08/11 14:28:52;;;;;;;2.33;0.47;;;25.90;56.80;;;;;;6146300;23;20014;-72
2022/08/11 14:31:18;;;;;;;0.45;0.43;;;25.80;56.50;;;;;;6145783;23;20009;-72
2022/08/11 14:33:45;;;;;;;0.85;0.63;;;25.80;56.40;;;;;;6146122;23;20002;-71
2022/08/11 14:36:12;;;;;;;0.90;0.60;;;25.80;56.00;;;;;;6120502;23;20009;-72
2022/08/11 14:38:39;;;;;;;0.75;0.50;;;25.80;57.00;;;;;;6147177;23;20009;-73
2022/08/11 14:49:25;;;;;;;0.88;0.40;;;25.80;55.70;;;;;;6145126;23;20343;-72
2022/08/11 14:51:53;;;;;;;1.13;0.50;;;25.80;57.10;;;;;;6145658;23;20012;-72
2022/08/11 14:57:08;;;;;;;25.73;5.28;;;25.80;57.70;;;;;;6145630;23;20072;-72
2022/08/11 14:59:35;;;;;;;2.35;0.80;;;25.80;59.80;;;;;;6147600;23;20023;-72
2022/08/11 15:04:51;;;;;;;0.82;0.65;;;25.70;60.40;;;;;;6146678;23;20016;-71
2022/08/11 15:07:28;;;;;;;2.63;1.10;;;25.70;62.40;;;;;;6145941;23;20014;-72
2022/08/11 15:10:02;;;;;;;0.68;0.50;;;25.50;63.60;;;;;;6146684;23;20013;-73
2022/08/11 15:12:30;;;;;;;6.65;0.80;;;25.40;61.60;;;;;;6143532;23;20348;-73
2022/08/11 15:17:42;;;;;;;0.30;0.30;;;25.40;63.20;;;;;;6146105;23;20052;-74
2022/08/11 15:25:44;;;;;;;1.95;0.40;;;25.40;59.50;;;;;;6147522;23;20044;-71
2022/08/11 15:39:28;;;;;;;1.92;0.63;;;25.30;58.70;;;;;;6144493;23;20383;-73
2022/08/11 15:47:58;;;;;;;7.23;0.70;;;25.30;59.00;;;;;;6144315;23;20016;-73
2022/08/11 15:50:29;;;;;;;15.85;1.25;;;25.30;58.70;;;;;;6144857;23;20013;-73
2022/08/11 15:53:07;;;;;;;2.67;0.73;;;25.30;58.50;;;;;;6146444;23;20005;-74
2022/08/11 15:55:34;;;;;;;8.45;1.20;;;25.30;59.00;;;;;;6146613;23;20089;-73
2022/08/11 16:04:11;;;;;;;2.95;0.55;;;25.20;59.30;;;;;;6143691;23;20036;-72
2022/08/11 16:07:05;;;;;;;1.48;0.47;;;25.20;59.60;;;;;;6144430;23;20013;-72
2022/08/11 16:09:45;;;;;;;1.77;0.60;;;25.10;62.80;;;;;;6145241;23;20009;-72
2022/08/11 16:12:15;;;;;;;0.80;0.50;;;24.90;62.10;;;;;;6144414;23;20017;-71
2022/08/11 16:17:39;;;;;;;6.78;0.60;;;24.40;61.70;;;;;;6144173;23;20358;-71
2022/08/11 16:20:07;;;;;;;1.52;0.60;;;24.20;61.90;;;;;;6142797;23;20494;-72
2022/08/11 16:22:40;;;;;;;4.20;0.68;;;23.90;63.50;;;;;;6144389;23;20012;-73
2022/08/11 16:25:13;;;;;;;0.45;0.45;;;23.70;64.50;;;;;;6144035;23;20005;-72
2022/08/11 16:27:42;;;;;;;1.00;0.47;;;23.50;64.90;;;;;;6144674;23;20010;-72
2022/08/11 16:30:09;;;;;;;1.45;0.40;;;23.40;65.40;;;;;;6142465;23;20021;-72
2022/08/11 16:32:39;;;;;;;1.02;0.70;;;23.20;66.20;;;;;;6142851;23;20032;-73
2022/08/11 16:40:45;;;;;;;1.65;0.52;;;22.70;68.50;;;;;;6144029;23;20024;-72
2022/08/11 16:48:49;;;;;;;0.82;0.63;;;22.70;70.00;;;;;;6145353;23;20024;-64
2022/08/11 16:51:15;;;;;;;2.05;0.30;;;22.70;70.20;;;;;;6146450;23;20006;-64
2022/08/11 16:53:44;;;;;;;20.52;2.88;;;22.80;71.20;;;;;;6145006;23;20005;-64
2022/08/11 16:56:15;;;;;;;0.38;0.38;;;22.80;71.90;;;;;;6146728;23;20001;-65
2022/08/11 17:01:27;;;;;;;0.47;0.43;;;22.70;69.70;;;;;;6145808;23;20103;-64
2022/08/11 17:18:05;;;;;;;6.78;0.70;;;22.60;72.00;;;;;;6146298;23;20012;-64
2022/08/11 17:20:32;;;;;;;0.30;0.30;;;22.60;71.90;;;;;;6120611;23;20006;-64
2022/08/11 17:25:47;;;;;;;0.88;0.40;;;22.50;73.10;;;;;;6148197;23;20356;-64
2022/08/11 17:28:14;;;;;;;1.10;0.50;;;22.50;73.80;;;;;;6118778;23;20260;-64
2022/08/11 17:36:11;;;;;;;17.33;1.00;;;22.20;76.40;;;;;;6147097;23;20335;-64
2022/08/11 17:38:38;;;;;;;0.77;0.43;;;22.10;76.40;;;;;;6146167;23;20596;-64
2022/08/11 17:49:23;;;;;;;1.27;0.40;;;22.00;77.90;;;;;;6144713;23;20084;-65
2022/08/11 18:00:08;;;;;;;0.30;0.30;;;21.70;80.90;;;;;;6146504;23;20017;-65
2022/08/11 18:05:26;;;;;;;0.40;0.30;;;21.50;83.20;;;;;;6147053;23;20025;-65
